Latest Weather Observations for Griffith

IDN60801

Issued at 12:53 pm EST Friday 17 September 2021 (issued every 10 minutes, with the page automatically refreshed every 10 minutes)

About weather observations | Map of weather stations | Latest weather observations for NSW | Other Formats
Station Details ID: 075041 Name: GRIFFITH AIRPORT AWS Lat: -34.25 Lon: 146.07 Height: 134.0 m
Data from the previous 72 hours. | See also: Recent months at Griffith
Date/Time
EST
Temp
°C
App
Temp
°C
Dew
Point
°C
Rel
Hum
%
Delta-T
°C
Wind Press
QNH
hPa
Press
MSL
hPa
Rain since
9am
mm
Dir  Spd
km/h
Gust
km/h
Spd
kts
Gust
kts
17/12:30pm 23.1 17.8 6.8 35 8.4 N 24 32 13 17 1016.1 1016.0 0.0
17/12:00pm 23.5 19.4 8.8 39 7.9 NNE 20 33 11 18 1016.7 1016.7 0.0
17/11:30am 22.4 17.6 7.4 38 7.8 N 22 30 12 16 1017.3 1017.3 0.0
17/11:00am 20.9 15.8 7.5 42 6.9 NNE 24 33 13 18 1017.5 1017.5 0.0
17/10:30am 20.0 14.5 6.0 40 7.0 NNE 24 33 13 18 1017.4 1017.4 0.0
17/10:00am 20.2 14.2 6.9 42 6.8 NNE 28 37 15 20 1017.8 1017.8 0.0
17/09:30am 18.9 13.4 5.7 42 6.5 NNE 24 35 13 19 1017.7 1017.7 0.0
17/09:00am 17.8 13.3 6.0 46 5.8 NNE 19 28 10 15 1018.0 1018.0 0.0
17/08:30am 16.1 13.6 6.5 53 4.7 NNE 9 17 5 9 1018.2 1018.2 0.0
17/08:00am 13.9 11.6 7.4 65 3.2 ESE 9 11 5 6 1018.6 1018.6 0.0
17/07:30am 12.0 8.9 7.3 73 2.3 ENE 13 15 7 8 1018.3 1018.3 0.0
17/07:00am 8.4 5.1 6.4 87 0.9 E 13 15 7 8 1018.5 1018.5 0.0
17/06:30am 5.8 2.1 4.4 91 0.6 E 13 15 7 8 1018.1 1018.1 0.0
17/06:00am 4.4 0.5 3.2 92 0.5 E 13 15 7 8 1018.2 1018.2 0.0
17/05:30am 5.1 1.3 3.9 92 0.5 E 13 17 7 9 1017.8 1017.8 0.0
17/05:00am 4.8 0.9 3.6 92 0.5 E 13 15 7 8 1017.9 1017.9 0.0
17/04:30am 4.8 0.9 3.3 90 0.6 E 13 15 7 8 1017.9 1017.9 0.0
17/04:00am 5.3 1.1 4.0 91 0.6 E 15 17 8 9 1017.9 1017.9 0.0
17/03:30am 5.4 1.6 4.1 91 0.6 E 13 17 7 9 1018.2 1018.2 0.0
17/03:00am 5.4 1.6 4.1 91 0.6 E 13 15 7 8 1018.5 1018.5 0.0
17/02:30am 5.6 1.8 4.1 90 0.6 E 13 15 7 8 1018.8 1018.8 0.0
17/02:00am 5.7 2.3 3.9 88 0.8 E 11 13 6 7 1019.4 1019.4 0.0
17/01:30am 5.3 1.8 3.3 87 0.8 E 11 13 6 7 1019.7 1019.7 0.0
17/01:00am 6.6 3.9 3.6 81 1.3 E 7 9 4 5 1020.0 1020.0 0.0
17/12:30am 7.7 4.8 4.5 80 1.4 ENE 9 11 5 6 1020.1 1020.1 0.0
17/12:00am 7.6 3.5 4.6 81 1.3 ESE 15 17 8 9 1020.0 1020.0 0.0
 
Date/Time
EST
Temp
°C
App
Temp
°C
Dew
Point
°C
Rel
Hum
%
Delta-T
°C
Wind Press
QNH
hPa
Press
MSL
hPa
Rain since
9am
mm
Dir  Spd
km/h
Gust
km/h
Spd
kts
Gust
kts
16/11:30pm 7.9 3.5 4.7 80 1.4 ESE 17 17 9 9 1020.1 1020.1 0.0
16/11:00pm 8.2 4.2 5.0 80 1.4 ESE 15 17 8 9 1020.3 1020.3 0.0
16/10:30pm 8.5 4.5 4.7 77 1.7 ESE 15 19 8 10 1020.5 1020.5 0.0
16/10:00pm 9.0 4.6 4.8 75 1.9 ESE 17 17 9 9 1020.3 1020.3 0.0
16/09:30pm 9.1 5.1 4.9 75 1.9 ESE 15 17 8 9 1020.6 1020.6 0.0
16/09:00pm 8.5 5.2 4.7 77 1.7 ESE 11 13 6 7 1020.6 1020.6 0.0
16/08:30pm 8.1 5.1 4.3 77 1.7 SE 9 11 5 6 1020.4 1020.4 0.0
16/08:00pm 8.9 5.8 3.7 70 2.3 ESE 9 13 5 7 1020.2 1020.2 0.0
16/07:30pm 10.7 7.0 4.2 64 2.9 SE 13 20 7 11 1019.9 1019.9 0.0
16/07:00pm 10.6 7.2 4.1 64 2.9 SSE 11 11 6 6 1019.5 1019.5 0.0
16/06:30pm 12.1 9.0 3.6 56 3.8 SE 9 11 5 6 1019.3 1019.3 0.0
16/06:00pm 15.0 12.1 4.4 49 4.9 SE 9 11 5 6 1019.2 1019.2 0.0
16/05:30pm 18.2 16.8 3.7 38 6.8 CALM 0 6 0 3 1019.2 1019.2 0.0
16/05:00pm 18.7 16.2 4.5 39 6.8 SSE 7 13 4 7 1019.1 1019.1 0.0
16/04:30pm 19.3 16.8 3.5 35 7.5 W 6 9 3 5 1019.1 1019.1 0.0
16/04:00pm 19.1 15.9 2.9 34 7.6 WSW 9 17 5 9 1019.2 1019.2 0.0
16/03:30pm 19.1 16.4 2.9 34 7.6 W 6 13 3 7 1019.5 1019.5 0.0
16/03:00pm 18.8 14.5 3.4 36 7.2 WSW 15 20 8 11 1019.8 1019.8 0.0
16/02:30pm 19.2 14.6 3.8 36 7.3 SW 17 20 9 11 1020.2 1020.2 0.0
16/02:00pm 18.7 15.4 4.5 39 6.8 SSW 11 19 6 10 1020.4 1020.4 0.0
16/01:30pm 17.8 14.2 2.9 37 6.9 SSE 11 20 6 11 1020.5 1020.5 0.0
16/01:00pm 18.0 15.0 4.2 40 6.5 SW 9 13 5 7 1020.9 1020.9 0.0
16/12:30pm 17.9 14.9 4.1 40 6.6 W 9 19 5 10 1021.5 1021.5 0.0
16/12:00pm 17.5 15.3 5.4 45 5.9 SSW 6 13 3 7 1021.8 1021.8 0.0
16/11:30am 17.1 14.0 3.8 41 6.2 E 9 15 5 8 1022.2 1022.2 0.0
16/11:00am 17.0 14.4 3.3 40 6.3 NNE 6 11 3 6 1022.6 1022.7 0.0
16/10:30am 16.7 14.4 4.7 45 5.7 NNW 6 9 3 5 1023.2 1023.3 0.0
16/10:00am 15.9 13.9 4.3 46 5.4 NNW 4 13 2 7 1023.4 1023.5 0.0
16/09:30am 14.5 12.5 6.1 57 4.1 E 6 9 3 5 1023.7 1023.7 0.0
16/09:00am 13.1 10.6 6.5 64 3.2 ESE 9 11 5 6 1023.9 1023.9 0.0
16/08:30am 11.6 8.5 5.7 67 2.8 ESE 11 15 6 8 1023.9 1023.9 0.0
16/08:00am 9.6 5.3 5.4 75 1.9 ESE 17 22 9 12 1023.7 1023.7 0.0
16/07:30am 8.3 3.4 4.1 75 1.8 ESE 19 22 10 12 1023.4 1023.5 0.0
16/07:00am 7.2 2.7 4.2 81 1.3 ESE 17 19 9 10 1023.2 1023.3 0.0
16/06:30am 5.7 0.7 3.5 86 0.9 ESE 19 19 10 10 1023.0 1023.1 0.0
16/06:00am 5.1 0.0 3.3 88 0.7 ESE 19 20 10 11 1022.7 1022.8 0.0
16/05:30am 5.2 0.5 3.2 87 0.8 ESE 17 17 9 9 1022.4 1022.5 0.0
16/05:00am 5.2 0.5 3.1 86 0.9 ESE 17 19 9 10 1022.3 1022.3 0.0
16/04:30am 5.2 0.5 3.4 88 0.8 ESE 17 19 9 10 1022.3 1022.3 0.0
16/04:00am 5.3 0.6 3.3 87 0.8 ESE 17 19 9 10 1022.2 1022.2 0.0
16/03:30am 5.2 0.5 3.2 87 0.8 ESE 17 19 9 10 1022.2 1022.2 0.0
16/03:00am 5.7 0.7 3.5 86 0.9 ESE 19 20 10 11 1022.3 1022.3 0.0
16/02:30am 6.1 1.1 3.8 85 1.0 ESE 19 20 10 11 1022.4 1022.5 0.0
16/02:00am 6.2 1.6 3.7 84 1.1 ESE 17 19 9 10 1022.7 1022.8 0.0
16/01:30am 6.0 1.8 4.0 87 0.9 ESE 15 17 8 9 1023.0 1023.1 0.0
16/01:00am 6.1 2.0 4.1 87 0.9 ESE 15 17 8 9 1023.2 1023.3 0.0
16/12:30am 5.5 1.7 3.7 88 0.8 ESE 13 15 7 8 1023.3 1023.4 0.0
16/12:00am 5.7 1.8 3.5 86 0.9 ESE 13 13 7 7 1023.3 1023.4 0.0
 
Date/Time
EST
Temp
°C
App
Temp
°C
Dew
Point
°C
Rel
Hum
%
Delta-T
°C
Wind Press
QNH
hPa
Press
MSL
hPa
Rain since
9am
mm
Dir  Spd
km/h
Gust
km/h
Spd
kts
Gust
kts
15/11:30pm 6.3 2.5 3.8 84 1.1 ESE 13 15 7 8 1023.4 1023.5 0.0
15/11:00pm 7.0 2.9 4.5 84 1.1 ESE 15 17 8 9 1023.3 1023.4 0.0
15/10:30pm 7.1 3.0 4.6 84 1.1 ESE 15 17 8 9 1023.2 1023.3 0.0
15/10:00pm 7.3 3.3 5.0 85 1.0 ESE 15 17 8 9 1023.2 1023.3 0.0
15/09:30pm 7.6 4.0 5.1 84 1.1 ESE 13 15 7 8 1023.1 1023.2 0.0
15/09:00pm 7.9 4.3 5.0 82 1.3 ESE 13 15 7 8 1023.0 1023.1 0.0
15/08:30pm 8.3 5.1 5.1 80 1.4 ESE 11 13 6 7 1022.8 1022.9 0.0
15/08:00pm 8.7 5.3 4.1 73 2.0 E 11 13 6 7 1022.8 1022.9 0.0
15/07:30pm 10.5 6.9 4.9 68 2.5 ESE 13 15 7 8 1022.5 1022.6 0.0
15/07:13pm 11.8 8.2 5.0 63 3.1 SE 13 15 7 8 1022.4 1022.5 0.0
15/07:00pm 12.2 8.6 4.9 61 3.4 SE 13 17 7 9 1022.3 1022.3 0.0
15/06:55pm 12.6 9.1 5.3 61 3.4 SE 13 15 7 8 1022.3 1022.3 0.0
15/06:30pm 11.6 8.3 4.6 62 3.2 ESE 11 13 6 7 1022.1 1022.1 0.0
15/06:00pm 13.9 10.5 4.2 52 4.5 SE 11 15 6 8 1022.0 1022.0 0.0
15/05:30pm 15.8 12.1 4.5 47 5.3 SE 13 17 7 9 1021.8 1021.8 0.0
15/05:00pm 16.6 12.7 3.3 41 6.1 SE 13 19 7 10 1021.7 1021.7 0.0
15/04:30pm 17.7 14.7 3.9 40 6.5 SE 9 17 5 9 1021.6 1021.6 0.0
15/04:00pm 18.0 14.9 3.5 38 6.8 ENE 9 15 5 8 1021.6 1021.6 0.0
15/03:30pm 18.0 13.8 1.9 34 7.3 E 13 17 7 9 1021.9 1021.9 0.0
15/03:00pm 18.2 15.4 2.1 34 7.3 SE 6 11 3 6 1022.2 1022.2 0.0
15/02:30pm 18.1 15.0 1.6 33 7.5 W 7 13 4 7 1022.6 1022.7 0.0
15/02:00pm 18.1 14.8 2.4 35 7.2 NNE 9 13 5 7 1022.9 1023.0 0.0
15/01:30pm 17.8 15.0 2.2 35 7.1 W 6 11 3 6 1023.4 1023.5 0.0
15/01:00pm 17.1 12.8 1.1 34 7.1 W 13 20 7 11 1024.0 1024.0 0.0
15/12:30pm 17.6 14.7 2.4 36 7.0 E 7 9 4 5 1024.5 1024.5 0.0
15/12:00pm 17.2 12.9 3.5 40 6.4 W 15 22 8 12 1024.8 1024.8 0.0
15/11:30am 17.2 14.1 3.5 40 6.4 NE 9 13 5 7 1025.2 1025.2 0.0
15/11:00am 15.8 12.2 2.9 42 5.8 WSW 11 19 6 10 1025.4 1025.4 0.0
15/10:30am 16.6 13.9 2.6 39 6.4 NNE 6 13 3 7 1025.8 1025.8 0.0
15/10:00am 15.7 13.1 4.1 46 5.4 NE 7 15 4 8 1026.0 1026.0 0.0
15/09:30am 14.6 11.3 4.6 51 4.7 ENE 11 15 6 8 1025.9 1025.9 0.0
15/09:00am 13.2 9.4 5.9 61 3.5 E 15 19 8 10 1025.8 1025.8 0.0
15/08:30am 11.2 7.6 6.9 75 2.1 ESE 15 19 8 10 1025.7 1025.7 0.0
15/08:00am 8.6 4.8 5.9 83 1.2 ESE 15 19 8 10 1025.5 1025.5 0.0
15/07:30am 6.8 3.6 5.1 89 0.8 E 11 17 6 9 1025.3 1025.3 0.0
15/07:00am 5.4 1.7 4.5 94 0.4 ESE 13 17 7 9 1025.1 1025.1 0.0
15/06:30am 4.4 0.1 3.5 94 0.4 ESE 15 19 8 10 1024.7 1024.7 0.0
15/06:00am 4.5 -0.5 3.6 94 0.4 ESE 19 22 10 12 1024.4 1024.4 0.0
15/05:30am 4.7 -0.5 3.8 94 0.4 ESE 20 22 11 12 1024.0 1024.0 0.0
15/05:00am 4.7 0.9 4.0 95 0.3 ESE 13 17 7 9 1023.9 1023.9 0.0
15/04:30am 3.8 1.2 3.1 95 0.3 E 6 13 3 7 1023.9 1023.9 0.0
15/04:00am 3.6 0.7 2.4 92 0.5 E 7 9 4 5 1023.8 1023.8 0.0
15/03:30am 4.5 1.8 3.5 93 0.4 E 7 11 4 6 1023.8 1023.8 0.0
15/03:00am 3.8 0.0 2.0 88 0.7 ESE 11 13 6 7 1023.8 1023.8 0.0
15/02:30am 4.0 0.7 2.7 91 0.5 E 9 13 5 7 1024.1 1024.1 0.0
15/02:00am 3.3 0.3 0.5 82 1.1 E 6 7 3 4 1024.5 1024.5 0.0
15/01:30am 5.8 3.3 3.6 86 0.9 E 6 7 3 4 1024.5 1024.5 0.0
15/01:00am 4.8 1.2 2.7 86 0.9 ESE 11 13 6 7 1024.6 1024.6 0.0
15/12:30am 5.3 1.3 2.7 83 1.1 ESE 13 15 7 8 1024.7 1024.7 0.0
15/12:00am 5.9 2.0 3.6 85 1.0 ESE 13 15 7 8 1024.8 1024.8 0.0
 
Date/Time
EST
Temp
°C
App
Temp
°C
Dew
Point
°C
Rel
Hum
%
Delta-T
°C
Wind Press
QNH
hPa
Press
MSL
hPa
Rain since
9am
mm
Dir  Spd
km/h
Gust
km/h
Spd
kts
Gust
kts
14/11:30pm 5.3 1.3 3.0 85 1.0 E 13 15 7 8 1024.9 1024.9 0.0
14/11:00pm 5.5 1.9 2.8 83 1.1 ESE 11 15 6 8 1024.9 1024.9 0.0
14/10:30pm 6.1 3.3 3.1 81 1.3 SE 7 13 4 7 1025.0 1025.0 0.0
14/10:00pm 6.3 2.8 3.5 82 1.2 ESE 11 13 6 7 1024.9 1024.9 0.0
14/09:30pm 7.3 5.0 3.0 74 1.8 ESE 4 7 2 4 1025.1 1025.1 0.0
14/09:00pm 7.4 5.8 2.7 72 2.0 CALM 0 0 0 0 1025.0 1025.0 0.0
14/08:30pm 7.1 4.3 3.3 77 1.6 SE 7 13 4 7 1025.1 1025.1 0.0
14/08:00pm 7.9 6.4 3.2 72 2.0 CALM 0 9 0 5 1024.9 1024.9 0.0
14/07:30pm 6.8 4.1 2.7 75 1.7 SW 6 6 3 3 1024.6 1024.6 0.0
14/07:00pm 8.5 5.7 3.4 70 2.2 SW 7 7 4 4 1024.3 1024.3 0.0
14/06:30pm 10.2 7.4 2.1 57 3.5 WSW 6 7 3 4 1024.2 1024.2 0.0
14/06:00pm 14.0 10.3 2.6 46 5.1 WSW 11 13 6 7 1024.0 1024.0 0.0
14/05:30pm 16.5 13.3 2.9 40 6.2 WSW 9 13 5 7 1023.8 1023.8 0.0
14/05:00pm 17.3 13.7 2.9 38 6.6 W 11 19 6 10 1023.7 1023.7 0.0
14/04:30pm 17.3 12.7 1.7 35 7.0 WSW 15 22 8 12 1023.6 1023.6 0.0
14/04:00pm 18.0 14.4 3.1 37 6.9 SW 11 19 6 10 1023.6 1023.6 0.0
14/03:30pm 17.8 13.6 3.7 39 6.6 SSW 15 22 8 12 1023.6 1023.6 0.0
14/03:00pm 17.9 14.3 3.0 37 6.9 SW 11 24 6 13 1023.6 1023.6 0.0
14/02:30pm 17.6 13.5 2.0 35 7.1 W 13 22 7 12 1023.9 1023.9 0.0
14/02:00pm 17.9 13.9 2.6 36 7.0 W 13 22 7 12 1024.0 1024.0 0.0
14/01:30pm 17.2 12.9 3.1 39 6.5 WSW 15 26 8 14 1024.3 1024.3 0.0
14/01:00pm 17.0 13.3 4.3 43 6.0 NW 13 22 7 12 1024.5 1024.5 0.0

Other formats

Comma delimited format used in spreadsheet applications
http://www.bom.gov.au/fwo/IDN60801/IDN60801.95704.axf

JavaScript Object Notation format (JSON) in row-major order
http://www.bom.gov.au/fwo/IDN60801/IDN60801.95704.json

Data quality

Most of these data are generated automatically and are frequently updated. Quality checks on data are not normally performed. It is possible for incorrect values to appear. Refer to information at About Latest Weather Observations and please check the disclaimer before using these data.